Time;durP1;ratioP1;P1;durP2;ratioP2;P2;SDS_P1;SDS_P2;PMS_P1;PMS_P2;Temp;Humidity;BMP_temperature;BMP_pressure;BME280_temperature;BME280_humidity;BME280_pressure;Samples;Min_cycle;Max_cycle;Signal;HPM_P1;HPM_P2
2022/08/19 00:00:07;;;;;;;9.63;6.68;;;;;;;;;;5050553;28;20424;-78
2022/08/19 00:02:33;;;;;;;10.32;6.75;;;;;;;;;;5050807;28;20440;-78
2022/08/19 00:04:58;;;;;;;11.45;6.38;;;;;;;;;;5050324;28;20049;-76
2022/08/19 00:07:24;;;;;;;10.77;6.78;;;;;;;;;;5050645;28;20112;-77
2022/08/19 00:09:49;;;;;;;14.63;6.78;;;;;;;;;;5048698;28;20419;-78
2022/08/19 00:12:15;;;;;;;8.50;6.65;;;;;;;;;;5049182;28;20663;-78
2022/08/19 00:14:41;;;;;;;8.73;6.57;;;;;;;;;;5049834;28;20025;-79
2022/08/19 00:17:08;;;;;;;10.07;6.78;;;;;;;;;;5048750;28;20083;-78
2022/08/19 00:19:35;;;;;;;13.23;7.32;;;;;;;;;;5049127;28;20237;-77
2022/08/19 00:22:02;;;;;;;15.10;6.97;;;;;;;;;;5049135;28;20107;-78
2022/08/19 00:24:28;;;;;;;11.88;7.20;;;;;;;;;;5050481;28;20056;-78
2022/08/19 00:26:56;;;;;;;11.45;7.05;;;;;;;;;;5048903;28;20275;-77
2022/08/19 00:29:22;;;;;;;9.30;6.70;;;;;;;;;;5050018;28;20075;-79
2022/08/19 00:31:49;;;;;;;12.30;7.05;;;;;;;;;;5050045;28;20114;-79
2022/08/19 00:34:15;;;;;;;9.95;6.45;;;;;;;;;;5049519;28;20036;-77
2022/08/19 00:36:42;;;;;;;10.75;6.60;;;;;;;;;;5052478;28;20029;-78
2022/08/19 00:39:09;;;;;;;8.88;6.68;;;;;;;;;;5054300;28;20492;-76
2022/08/19 00:41:34;;;;;;;10.32;6.72;;;;;;;;;;5053593;28;20274;-78
2022/08/19 00:44:07;;;;;;;8.15;6.47;;;;;;;;;;5053804;28;20388;-79
2022/08/19 00:46:36;;;;;;;21.92;7.70;;;;;;;;;;5052752;28;20032;-78
2022/08/19 00:49:14;;;;;;;10.73;7.30;;;;;;;;;;5053827;28;20029;-77
2022/08/19 00:51:42;;;;;;;8.65;6.75;;;;;;;;;;5052233;28;20025;-78
2022/08/19 00:54:08;;;;;;;12.93;7.10;;;;;;;;;;5053037;28;20021;-76
2022/08/19 00:56:36;;;;;;;8.50;6.70;;;;;;;;;;5052228;28;20033;-77
2022/08/19 00:59:08;;;;;;;11.98;7.85;;;;;;;;;;5053888;28;20052;-77
2022/08/19 01:01:35;;;;;;;15.38;7.78;;;;;;;;;;5052507;28;20064;-80
2022/08/19 01:04:00;;;;;;;12.98;8.43;;;;;;;;;;5053424;28;20032;-78
2022/08/19 01:06:26;;;;;;;11.68;7.32;;;;;;;;;;5053620;28;20021;-79
2022/08/19 01:08:52;;;;;;;13.07;8.65;;;;;;;;;;5052714;28;20474;-79
2022/08/19 01:11:17;;;;;;;11.98;8.60;;;;;;;;;;5052374;28;20100;-78
2022/08/19 01:13:44;;;;;;;13.25;8.07;;;;;;;;;;5052092;28;20017;-78
2022/08/19 01:16:11;;;;;;;12.88;9.18;;;;;;;;;;5051129;28;20393;-78
2022/08/19 01:18:40;;;;;;;13.63;8.75;;;;;;;;;;5051890;28;20025;-77
2022/08/19 01:21:15;;;;;;;13.65;9.43;;;;;;;;;;5051341;28;20070;-78
2022/08/19 01:23:43;;;;;;;11.95;8.63;;;;;;;;;;5051399;28;20052;-76
2022/08/19 01:26:15;;;;;;;11.40;8.52;;;;;;;;;;5050235;28;20063;-77
2022/08/19 01:28:48;;;;;;;20.38;9.18;;;;;;;;;;5050494;28;20055;-78
2022/08/19 01:31:18;;;;;;;15.13;9.93;;;;;;;;;;5053287;28;20366;-78
2022/08/19 01:33:44;;;;;;;16.17;8.93;;;;;;;;;;5051200;28;20091;-78
2022/08/19 01:36:14;;;;;;;16.27;10.00;;;;;;;;;;5051900;28;20430;-77
2022/08/19 01:38:42;;;;;;;14.02;9.50;;;;;;;;;;5052122;28;20366;-76
2022/08/19 01:41:12;;;;;;;16.80;10.45;;;;;;;;;;5051311;28;20477;-77
2022/08/19 01:43:38;;;;;;;14.20;9.35;;;;;;;;;;5052377;28;20530;-77
2022/08/19 01:46:04;;;;;;;15.52;10.98;;;;;;;;;;5051528;28;20021;-77
2022/08/19 01:48:39;;;;;;;15.20;10.10;;;;;;;;;;5052060;28;20102;-77
2022/08/19 01:51:05;;;;;;;14.52;10.70;;;;;;;;;;5051972;28;20029;-79
2022/08/19 01:53:31;;;;;;;16.63;10.82;;;;;;;;;;5051641;28;20460;-76
2022/08/19 01:55:57;;;;;;;16.27;11.00;;;;;;;;;;5050296;28;20461;-77
2022/08/19 01:58:30;;;;;;;16.27;11.40;;;;;;;;;;5051909;28;20036;-78
2022/08/19 02:00:56;;;;;;;16.63;11.10;;;;;;;;;;5051670;28;20025;-78
2022/08/19 02:03:22;;;;;;;17.40;10.98;;;;;;;;;;5050942;28;20036;-78
2022/08/19 02:05:53;;;;;;;19.30;11.85;;;;;;;;;;5051007;28;20027;-78
2022/08/19 02:08:18;;;;;;;16.85;12.45;;;;;;;;;;5052015;28;20032;-78
2022/08/19 02:10:44;;;;;;;13.65;10.95;;;;;;;;;;5051044;28;20035;-78
2022/08/19 02:13:11;;;;;;;16.17;11.13;;;;;;;;;;5050238;28;20698;-78
2022/08/19 02:15:37;;;;;;;16.73;12.43;;;;;;;;;;5049780;28;20108;-78
2022/08/19 02:18:03;;;;;;;17.08;11.82;;;;;;;;;;5051179;28;20020;-78
2022/08/19 02:20:28;;;;;;;19.15;11.60;;;;;;;;;;5051294;28;20063;-78
2022/08/19 02:22:54;;;;;;;16.63;11.73;;;;;;;;;;5049000;28;20140;-78
2022/08/19 02:25:19;;;;;;;17.80;10.88;;;;;;;;;;5030538;28;20024;-78
2022/08/19 02:27:45;;;;;;;15.55;9.18;;;;;;;;;;5030728;28;20063;-78
2022/08/19 02:30:15;;;;;;;10.50;8.48;;;;;;;;;;5029823;28;20033;-78
2022/08/19 02:32:41;;;;;;;16.70;10.85;;;;;;;;;;5031690;28;20521;-77
2022/08/19 02:35:07;;;;;;;16.77;10.27;;;;;;;;;;5029974;28;20032;-78
2022/08/19 02:40:18;;;;;;;12.75;10.10;;;;;;;;;;5031255;28;20072;-78
2022/08/19 02:42:45;;;;;;;15.68;11.27;;;;;;;;;;5030858;28;20065;-78
2022/08/19 02:45:12;;;;;;;14.65;11.50;;;;;;;;;;5031167;28;20018;-78
2022/08/19 02:47:38;;;;;;;15.48;11.43;;;;;;;;;;5030624;28;20032;-77
2022/08/19 02:50:04;;;;;;;16.40;12.00;;;;;;;;;;5029848;28;20112;-79
2022/08/19 02:52:32;;;;;;;18.50;12.50;;;;;;;;;;5030784;28;20029;-77
2022/08/19 02:54:57;;;;;;;15.80;12.93;;;;;;;;;;5031239;28;20018;-77
2022/08/19 02:57:24;;;;;;;19.10;13.13;;;;;;;;;;5030849;28;20055;-79
2022/08/19 02:59:50;;;;;;;23.13;15.40;;;;;;;;;;5029925;28;20026;-79
2022/08/19 03:02:16;;;;;;;23.63;15.65;;;;;;;;;;5030101;28;20265;-78
2022/08/19 03:04:42;;;;;;;20.60;15.13;;;;;;;;;;5030158;28;20033;-78
2022/08/19 03:07:09;;;;;;;25.33;15.57;;;;;;;;;;5030988;28;20045;-79
2022/08/19 03:09:37;;;;;;;35.38;17.30;;;;;;;;;;5029205;28;20379;-77
2022/08/19 03:12:04;;;;;;;24.08;15.30;;;;;;;;;;5030962;28;20053;-77
2022/08/19 03:14:33;;;;;;;25.30;15.88;;;;;;;;;;5030575;28;20104;-77
2022/08/19 03:16:59;;;;;;;27.50;15.88;;;;;;;;;;5029165;28;20021;-77
2022/08/19 03:19:25;;;;;;;32.63;17.98;;;;;;;;;;5030427;28;20048;-77
2022/08/19 03:21:51;;;;;;;24.55;16.40;;;;;;;;;;5030443;28;20029;-77
2022/08/19 03:24:18;;;;;;;26.65;16.77;;;;;;;;;;5030042;28;20054;-77
2022/08/19 03:26:51;;;;;;;25.10;17.33;;;;;;;;;;5030850;28;20049;-79
2022/08/19 03:29:19;;;;;;;25.08;17.40;;;;;;;;;;5030895;28;20053;-76
2022/08/19 03:31:45;;;;;;;25.92;18.40;;;;;;;;;;5030492;28;20033;-78
2022/08/19 03:34:14;;;;;;;25.95;18.00;;;;;;;;;;5029230;28;20064;-78
2022/08/19 03:36:40;;;;;;;28.05;17.98;;;;;;;;;;5029553;28;20026;-79
2022/08/19 03:39:08;;;;;;;27.20;17.98;;;;;;;;;;5029761;28;20029;-77
2022/08/19 03:41:44;;;;;;;25.38;17.90;;;;;;;;;;5031014;28;20100;-77
2022/08/19 03:44:10;;;;;;;27.30;18.20;;;;;;;;;;5030738;28;20561;-78
2022/08/19 03:46:36;;;;;;;25.25;17.88;;;;;;;;;;5030517;28;20092;-78
2022/08/19 03:49:06;;;;;;;25.40;17.60;;;;;;;;;;5030083;28;20469;-79
2022/08/19 03:51:36;;;;;;;28.30;17.65;;;;;;;;;;5029716;28;20029;-76
2022/08/19 03:54:04;;;;;;;26.60;17.80;;;;;;;;;;5030443;28;20492;-77
2022/08/19 03:56:32;;;;;;;28.20;17.95;;;;;;;;;;5031148;28;20466;-79
2022/08/19 03:58:59;;;;;;;27.38;19.55;;;;;;;;;;5030284;28;20112;-78
2022/08/19 04:01:27;;;;;;;27.13;18.35;;;;;;;;;;5028249;28;20084;-78
2022/08/19 04:03:53;;;;;;;25.98;17.90;;;;;;;;;;5030028;28;20038;-79
2022/08/19 04:06:29;;;;;;;30.17;19.50;;;;;;;;;;5029441;28;20059;-77
2022/08/19 04:08:57;;;;;;;31.58;19.05;;;;;;;;;;5028204;28;20065;-78
2022/08/19 04:11:28;;;;;;;29.70;18.92;;;;;;;;;;5034523;28;20022;-78
2022/08/19 04:13:55;;;;;;;27.20;18.65;;;;;;;;;;5034218;28;20056;-78
2022/08/19 04:16:22;;;;;;;30.27;19.88;;;;;;;;;;5034069;28;20091;-79
2022/08/19 04:18:48;;;;;;;31.20;18.80;;;;;;;;;;5034194;28;20026;-78
2022/08/19 04:21:24;;;;;;;26.52;19.23;;;;;;;;;;5034381;28;20036;-79
2022/08/19 04:23:50;;;;;;;31.88;21.48;;;;;;;;;;5041975;28;20124;-78
2022/08/19 04:26:31;;;;;;;31.35;20.60;;;;;;;;;;5053172;28;20159;-79
2022/08/19 04:28:57;;;;;;;;;;;;;;;;;;5054083;28;20112;-78
2022/08/19 04:31:26;;;;;;;28.48;20.05;;;;;;;;;;5053031;28;20054;-79
2022/08/19 04:34:03;;;;;;;27.40;19.48;;;;;;;;;;5053895;28;20032;-78
2022/08/19 04:36:32;;;;;;;30.58;20.08;;;;;;;;;;5052740;28;20025;-79
2022/08/19 04:39:09;;;;;;;28.58;19.38;;;;;;;;;;5053729;28;20031;-79
2022/08/19 04:44:19;;;;;;;29.52;20.65;;;;;;;;;;5054016;28;20036;-79
2022/08/19 04:46:47;;;;;;;29.25;18.75;;;;;;;;;;5053220;28;20029;-77
2022/08/19 04:49:15;;;;;;;35.85;22.67;;;;;;;;;;5053013;28;20103;-78
2022/08/19 04:51:43;;;;;;;26.58;18.02;;;;;;;;;;5052600;28;20310;-78
2022/08/19 04:54:09;;;;;;;26.65;19.25;;;;;;;;;;5050732;28;20024;-78
2022/08/19 04:56:35;;;;;;;28.48;20.08;;;;;;;;;;5051390;28;20033;-78
2022/08/19 04:59:03;;;;;;;25.38;18.83;;;;;;;;;;5051443;28;20137;-78
2022/08/19 05:01:31;;;;;;;29.77;20.40;;;;;;;;;;5052216;28;20487;-78
2022/08/19 05:03:58;;;;;;;25.92;18.83;;;;;;;;;;5053145;28;20029;-78
2022/08/19 05:06:25;;;;;;;44.53;20.90;;;;;;;;;;5048365;28;20025;-75
2022/08/19 05:08:51;;;;;;;19.00;12.90;;;;;;;;;;5047278;28;20029;-80
2022/08/19 05:11:21;;;;;;;23.80;11.85;;;;;;;;;;5051743;28;20067;-80
2022/08/19 05:13:48;;;;;;;24.90;14.85;;;;;;;;;;5047350;28;20029;-81
2022/08/19 05:16:16;;;;;;;25.42;17.25;;;;;;;;;;5041418;28;20037;-80
2022/08/19 05:24:15;;;;;;;28.98;21.35;;;;;;;;;;5050480;28;20129;-81
2022/08/19 05:26:47;;;;;;;28.48;21.50;;;;;;;;;;5052343;28;20449;-79
2022/08/19 05:29:17;;;;;;;31.23;20.67;;;;;;;;;;5050386;28;20127;-78
2022/08/19 05:31:45;;;;;;;47.67;30.95;;;;;;;;;;5021839;28;20425;-78
2022/08/19 05:34:10;;;;;;;29.77;21.70;;;;;;;;;;5044972;28;20029;-78
2022/08/19 05:36:40;;;;;;;34.47;22.63;;;;;;;;;;5060105;28;20036;-78
2022/08/19 05:39:13;;;;;;;28.40;20.08;;;;;;;;;;5039931;28;20029;-79
2022/08/19 05:42:06;;;;;;;44.55;27.27;;;;;;;;;;5058368;28;20060;-82
2022/08/19 05:44:36;;;;;;;29.15;21.73;;;;;;;;;;5040341;28;20394;-80
2022/08/19 05:47:04;;;;;;;28.42;21.58;;;;;;;;;;5040328;28;20402;-81
2022/08/19 05:49:31;;;;;;;63.50;23.95;;;;;;;;;;5037831;28;20220;-79
2022/08/19 05:51:59;;;;;;;46.28;22.95;;;;;;;;;;5048815;28;20148;-79
2022/08/19 05:54:26;;;;;;;41.60;22.73;;;;;;;;;;5040486;28;20045;-81
2022/08/19 05:56:53;;;;;;;48.03;22.65;;;;;;;;;;5050425;28;20062;-77
2022/08/19 05:59:21;;;;;;;29.65;20.25;;;;;;;;;;5049882;28;20363;-77
2022/08/19 06:01:50;;;;;;;31.13;20.70;;;;;;;;;;5039577;28;20389;-78
2022/08/19 06:04:18;;;;;;;30.92;20.63;;;;;;;;;;5053548;28;20039;-77
2022/08/19 06:06:46;;;;;;;29.33;20.05;;;;;;;;;;5068023;28;20029;-76
2022/08/19 06:09:11;;;;;;;30.50;20.30;;;;;;;;;;5036998;28;20481;-77
2022/08/19 06:11:43;;;;;;;29.50;20.60;;;;;;;;;;5050972;28;20031;-77
2022/08/19 06:14:14;;;;;;;33.80;22.25;;;;;;;;;;5051673;28;20024;-77
2022/08/19 06:16:41;;;;;;;27.13;21.58;;;;;;;;;;5051310;28;20021;-79
2022/08/19 06:19:10;;;;;;;28.95;20.25;;;;;;;;;;5039460;28;20096;-77
2022/08/19 06:21:38;;;;;;;28.95;20.88;;;;;;;;;;5044842;28;20442;-77
2022/08/19 06:24:09;;;;;;;33.85;23.52;;;;;;;;;;5043782;28;20045;-78
2022/08/19 06:26:37;;;;;;;30.27;20.98;;;;;;;;;;5042304;28;20025;-76
2022/08/19 06:29:05;;;;;;;26.20;19.98;;;;;;;;;;5051944;28;20027;-80
2022/08/19 06:31:33;;;;;;;36.13;22.63;;;;;;;;;;5048632;28;20400;-79
2022/08/19 06:34:02;;;;;;;32.33;20.52;;;;;;;;;;5051236;28;20033;-80
2022/08/19 06:36:33;;;;;;;33.00;22.65;;;;;;;;;;5037216;28;20473;-80
2022/08/19 06:39:15;;;;;;;30.17;21.08;;;;;;;;;;5046231;28;20112;-79
2022/08/19 06:41:44;;;;;;;27.98;20.48;;;;;;;;;;5042323;28;20489;-80
2022/08/19 06:44:11;;;;;;;30.92;22.90;;;;;;;;;;5053466;28;20477;-79
2022/08/19 06:46:38;;;;;;;32.65;21.00;;;;;;;;;;5056141;28;20444;-81
2022/08/19 06:49:11;;;;;;;27.48;20.13;;;;;;;;;;5055880;28;20024;-80
2022/08/19 06:51:37;;;;;;;27.38;20.50;;;;;;;;;;5050391;28;20025;-80
2022/08/19 06:54:03;;;;;;;29.77;20.48;;;;;;;;;;5052362;28;20025;-82
2022/08/19 06:56:34;;;;;;;28.33;19.63;;;;;;;;;;5071620;28;20488;-81
2022/08/19 06:59:13;;;;;;;31.50;20.92;;;;;;;;;;5054430;28;20032;-80
2022/08/19 07:01:46;;;;;;;28.80;20.88;;;;;;;;;;5055433;28;20048;-81
2022/08/19 07:04:24;;;;;;;27.42;19.75;;;;;;;;;;5052467;28;20499;-80
2022/08/19 07:06:58;;;;;;;29.92;20.83;;;;;;;;;;5038214;28;20025;-80
2022/08/19 07:09:24;;;;;;;33.50;20.10;;;;;;;;;;5060589;28;20027;-80
2022/08/19 07:11:52;;;;;;;29.65;20.15;;;;;;;;;;5058479;28;20033;-80
2022/08/19 07:14:22;;;;;;;27.95;19.63;;;;;;;;;;5052542;28;20040;-79
2022/08/19 07:16:49;;;;;;;27.10;19.60;;;;;;;;;;5069689;28;20032;-81
2022/08/19 07:19:17;;;;;;;29.77;19.42;;;;;;;;;;5055633;28;20102;-82
2022/08/19 07:21:43;;;;;;;26.17;20.52;;;;;;;;;;5052454;28;20033;-80
2022/08/19 07:24:09;;;;;;;29.83;19.70;;;;;;;;;;5054527;28;20051;-80
2022/08/19 07:26:39;;;;;;;28.55;19.27;;;;;;;;;;5037355;28;20227;-81
2022/08/19 07:29:06;;;;;;;25.38;18.77;;;;;;;;;;5041605;28;20025;-79
2022/08/19 07:31:36;;;;;;;24.13;18.35;;;;;;;;;;5039365;28;20044;-79
2022/08/19 07:34:07;;;;;;;27.50;18.48;;;;;;;;;;5054612;28;20024;-78
2022/08/19 07:36:36;;;;;;;29.85;20.75;;;;;;;;;;5053091;28;20609;-80
2022/08/19 07:39:07;;;;;;;31.27;20.52;;;;;;;;;;5053534;28;20117;-79
2022/08/19 07:41:36;;;;;;;23.33;19.00;;;;;;;;;;5040833;28;20032;-79
2022/08/19 07:44:04;;;;;;;26.95;19.23;;;;;;;;;;5039783;28;20022;-80
2022/08/19 07:46:33;;;;;;;32.08;22.58;;;;;;;;;;5034278;28;20462;-80
2022/08/19 07:49:00;;;;;;;24.98;20.15;;;;;;;;;;5041106;28;20024;-79
2022/08/19 07:51:28;;;;;;;25.25;19.15;;;;;;;;;;5051763;28;20400;-80
2022/08/19 07:53:54;;;;;;;24.02;19.17;;;;;;;;;;5052602;28;20034;-80
2022/08/19 07:56:21;;;;;;;25.15;19.20;;;;;;;;;;5026583;28;20056;-80
2022/08/19 07:58:50;;;;;;;29.05;20.50;;;;;;;;;;5049409;28;20108;-79
2022/08/19 08:01:20;;;;;;;25.75;18.02;;;;;;;;;;5050097;28;20056;-81
2022/08/19 08:09:24;;;;;;;27.33;20.65;;;;;;;;;;5049255;28;20071;-78
2022/08/19 08:11:54;;;;;;;28.15;20.42;;;;;;;;;;5051898;28;20055;-79
2022/08/19 08:14:26;;;;;;;28.83;21.15;;;;;;;;;;5045764;28;20132;-80
2022/08/19 08:16:52;;;;;;;30.45;20.23;;;;;;;;;;5039376;28;20034;-81
2022/08/19 08:19:20;;;;;;;26.17;20.35;;;;;;;;;;5034065;28;20045;-80
2022/08/19 08:21:48;;;;;;;26.67;20.35;;;;;;;;;;5055275;28;20182;-80
2022/08/19 08:24:14;;;;;;;30.17;20.88;;;;;;;;;;5041998;28;20409;-80
2022/08/19 08:26:43;;;;;;;32.72;20.15;;;;;;;;;;5039417;28;20033;-80
2022/08/19 08:29:11;;;;;;;29.77;20.75;;;;;;;;;;5032306;28;20469;-81
2022/08/19 08:31:38;;;;;;;27.42;19.70;;;;;;;;;;5040727;28;20559;-81
2022/08/19 08:34:04;;;;;;;34.80;22.05;;;;;;;;;;5047659;28;20026;-79
2022/08/19 08:36:33;;;;;;;24.50;20.25;;;;;;;;;;5031914;28;20068;-79
2022/08/19 08:38:58;;;;;;;29.73;21.15;;;;;;;;;;5032382;28;20025;-81
2022/08/19 08:41:40;;;;;;;33.42;21.60;;;;;;;;;;5036540;28;20493;-80
2022/08/19 08:44:11;;;;;;;29.75;20.23;;;;;;;;;;5052385;28;20036;-80
2022/08/19 08:46:46;;;;;;;33.58;21.20;;;;;;;;;;5053044;28;20021;-80
2022/08/19 08:49:43;;;;;;;28.70;20.30;;;;;;;;;;5052900;28;20029;-81
2022/08/19 08:52:21;;;;;;;29.10;19.80;;;;;;;;;;5047657;28;20029;-83
2022/08/19 08:54:50;;;;;;;25.88;20.20;;;;;;;;;;5052658;28;20481;-81
2022/08/19 08:57:21;;;;;;;25.40;21.30;;;;;;;;;;5056205;28;20100;-79
2022/08/19 08:59:51;;;;;;;24.17;19.67;;;;;;;;;;5054884;28;20025;-81
2022/08/19 09:02:18;;;;;;;28.25;20.90;;;;;;;;;;5065389;28;20446;-81
2022/08/19 09:04:44;;;;;;;28.42;19.80;;;;;;;;;;5055755;28;20229;-80
2022/08/19 09:07:47;;;;;;;26.63;19.98;;;;;;;;;;5054728;28;20059;-78
2022/08/19 09:10:32;;;;;;;26.13;18.73;;;;;;;;;;5035322;28;20083;-81
2022/08/19 09:13:04;;;;;;;33.17;23.77;;;;;;;;;;5052568;28;20433;-80
2022/08/19 09:15:39;;;;;;;26.75;20.45;;;;;;;;;;5050173;28;20025;-80
2022/08/19 09:18:06;;;;;;;29.52;20.63;;;;;;;;;;5045074;28;20033;-79
2022/08/19 09:20:32;;;;;;;33.15;20.45;;;;;;;;;;5056166;28;20035;-80
2022/08/19 09:22:59;;;;;;;25.48;18.88;;;;;;;;;;5052923;28;20095;-81
2022/08/19 09:25:25;;;;;;;26.35;20.48;;;;;;;;;;5048816;28;20036;-80
2022/08/19 09:27:53;;;;;;;23.00;18.05;;;;;;;;;;5051896;28;20371;-80
2022/08/19 09:30:27;;;;;;;29.90;20.00;;;;;;;;;;5053831;28;20029;-80
2022/08/19 09:32:54;;;;;;;28.73;20.33;;;;;;;;;;5054384;28;20093;-79
2022/08/19 09:35:22;;;;;;;26.15;19.02;;;;;;;;;;5055059;28;20028;-80
2022/08/19 09:37:49;;;;;;;34.70;23.80;;;;;;;;;;5054310;28;20531;-80
2022/08/19 09:40:15;;;;;;;25.83;20.17;;;;;;;;;;5038681;28;20385;-82
2022/08/19 09:42:43;;;;;;;28.05;20.42;;;;;;;;;;5035342;28;20036;-80
2022/08/19 09:45:09;;;;;;;25.00;19.25;;;;;;;;;;5040992;28;20034;-81
2022/08/19 09:47:37;;;;;;;26.50;19.33;;;;;;;;;;5050217;28;20029;-79
2022/08/19 09:50:08;;;;;;;30.90;20.27;;;;;;;;;;5041066;28;20028;-80
2022/08/19 09:52:36;;;;;;;29.88;20.52;;;;;;;;;;5053006;28;20036;-82
2022/08/19 09:55:04;;;;;;;26.38;20.13;;;;;;;;;;5056199;28;20059;-81
2022/08/19 09:57:29;;;;;;;27.40;20.83;;;;;;;;;;5051113;28;20029;-79
2022/08/19 09:59:55;;;;;;;24.15;19.67;;;;;;;;;;5036130;28;20040;-82
2022/08/19 10:02:21;;;;;;;24.85;19.30;;;;;;;;;;5045126;28;20032;-81
2022/08/19 10:07:30;;;;;;;28.08;19.98;;;;;;;;;;5054066;28;20036;-80
2022/08/19 10:09:56;;;;;;;31.45;23.55;;;;;;;;;;5070179;28;20024;-79
2022/08/19 10:12:22;;;;;;;26.15;19.60;;;;;;;;;;5054028;28;20362;-79
2022/08/19 10:14:48;;;;;;;24.83;19.15;;;;;;;;;;5048841;28;20044;-80
2022/08/19 10:17:14;;;;;;;28.42;20.10;;;;;;;;;;5048270;28;20028;-80
2022/08/19 10:19:40;;;;;;;31.58;21.27;;;;;;;;;;5064714;28;20025;-82
2022/08/19 10:22:06;;;;;;;26.85;20.20;;;;;;;;;;5044696;28;20409;-81
2022/08/19 10:24:35;;;;;;;26.45;21.17;;;;;;;;;;5049542;28;20048;-81
2022/08/19 10:27:05;;;;;;;35.30;23.38;;;;;;;;;;5035823;28;20028;-80
2022/08/19 10:29:34;;;;;;;37.00;28.47;;;;;;;;;;5035712;28;20108;-79
2022/08/19 10:32:07;;;;;;;26.98;22.13;;;;;;;;;;5059613;28;20119;-78
2022/08/19 10:34:34;;;;;;;24.50;19.25;;;;;;;;;;5055447;28;20147;-80
2022/08/19 10:37:00;;;;;;;25.17;20.60;;;;;;;;;;5019191;28;20065;-80
2022/08/19 10:39:29;;;;;;;26.25;20.52;;;;;;;;;;5047288;28;20029;-82
2022/08/19 10:41:56;;;;;;;28.67;21.17;;;;;;;;;;5050353;28;20025;-82
2022/08/19 10:44:23;;;;;;;27.35;20.33;;;;;;;;;;5067895;28;20036;-82
2022/08/19 10:46:49;;;;;;;30.38;21.60;;;;;;;;;;5057034;28;20311;-82
2022/08/19 10:49:16;;;;;;;28.77;21.38;;;;;;;;;;5039742;28;20036;-81
2022/08/19 10:56:50;;;;;;;32.95;24.98;;;;;;;;;;5050082;28;20032;-80
2022/08/19 10:57:13;;;;;;;31.50;23.10;;;;;;;;;;5042498;28;20465;-80
2022/08/19 10:59:39;;;;;;;32.97;22.20;;;;;;;;;;5055751;28;20024;-82
2022/08/19 11:02:09;;;;;;;30.10;21.40;;;;;;;;;;5053001;28;20048;-82
2022/08/19 11:04:35;;;;;;;30.08;21.33;;;;;;;;;;5042688;28;20025;-81
2022/08/19 11:07:03;;;;;;;31.45;20.77;;;;;;;;;;5037619;28;20187;-80
2022/08/19 11:09:28;;;;;;;28.65;20.77;;;;;;;;;;5053447;28;20032;-83
2022/08/19 11:11:56;;;;;;;31.50;21.73;;;;;;;;;;5052895;28;20524;-81
2022/08/19 11:14:24;;;;;;;28.33;21.65;;;;;;;;;;5065232;28;20025;-82
2022/08/19 11:16:51;;;;;;;30.08;21.58;;;;;;;;;;5035213;28;20611;-79
2022/08/19 11:19:19;;;;;;;27.15;20.13;;;;;;;;;;5035021;28;20021;-80
2022/08/19 11:21:48;;;;;;;31.10;22.73;;;;;;;;;;5044645;28;20078;-82
2022/08/19 11:24:27;;;;;;;25.23;20.05;;;;;;;;;;5056790;28;20071;-81
2022/08/19 11:26:58;;;;;;;30.85;21.45;;;;;;;;;;5056173;28;20052;-82
2022/08/19 11:29:25;;;;;;;27.67;20.45;;;;;;;;;;5054256;28;20036;-79
2022/08/19 11:31:51;;;;;;;31.90;20.60;;;;;;;;;;5053704;28;20060;-80
2022/08/19 11:34:21;;;;;;;23.60;19.42;;;;;;;;;;5055614;28;20040;-81
2022/08/19 11:36:49;;;;;;;30.87;21.63;;;;;;;;;;5071371;28;20167;-80
2022/08/19 11:39:17;;;;;;;27.00;19.02;;;;;;;;;;5035464;28;20028;-80
2022/08/19 11:41:43;;;;;;;27.08;21.63;;;;;;;;;;5039900;28;20029;-80
2022/08/19 11:44:09;;;;;;;24.05;19.13;;;;;;;;;;5056973;28;20357;-80
2022/08/19 11:46:36;;;;;;;30.65;19.58;;;;;;;;;;5054120;28;20051;-79
2022/08/19 11:49:04;;;;;;;30.77;20.55;;;;;;;;;;5053894;28;20037;-79
2022/08/19 11:51:30;;;;;;;28.20;21.83;;;;;;;;;;5038885;28;20369;-80
2022/08/19 11:53:58;;;;;;;30.90;21.00;;;;;;;;;;5054719;28;20029;-80
2022/08/19 11:56:25;;;;;;;25.50;19.15;;;;;;;;;;5049172;28;20091;-79
2022/08/19 11:58:52;;;;;;;27.17;18.63;;;;;;;;;;5054281;28;20511;-80
2022/08/19 12:01:22;;;;;;;30.17;20.20;;;;;;;;;;5069412;28;21837;-79
2022/08/19 12:03:50;;;;;;;30.42;22.05;;;;;;;;;;5052609;28;20040;-81
2022/08/19 12:06:28;;;;;;;27.35;21.13;;;;;;;;;;5053405;28;20067;-80
2022/08/19 12:09:00;;;;;;;31.50;20.55;;;;;;;;;;5053592;28;20032;-80
2022/08/19 12:11:26;;;;;;;26.52;19.33;;;;;;;;;;5051602;28;20268;-81
2022/08/19 12:13:53;;;;;;;31.60;19.65;;;;;;;;;;5054567;28;20077;-81
2022/08/19 12:16:24;;;;;;;43.95;23.00;;;;;;;;;;5055167;28;20029;-82
2022/08/19 12:18:50;;;;;;;29.00;20.02;;;;;;;;;;5055944;28;20025;-81
2022/08/19 12:21:24;;;;;;;23.00;18.95;;;;;;;;;;5050429;28;20504;-84
2022/08/19 12:23:51;;;;;;;32.17;21.80;;;;;;;;;;5047524;28;20052;-82
2022/08/19 12:26:17;;;;;;;29.15;20.20;;;;;;;;;;5057518;28;20025;-81
2022/08/19 12:28:43;;;;;;;32.83;19.77;;;;;;;;;;5061554;28;20045;-81
2022/08/19 12:31:19;;;;;;;24.52;20.80;;;;;;;;;;5054034;28;20058;-81
2022/08/19 12:33:45;;;;;;;25.48;17.73;;;;;;;;;;5061985;28;20048;-82
2022/08/19 12:36:13;;;;;;;23.77;18.48;;;;;;;;;;5076588;28;20017;-81
2022/08/19 12:38:40;;;;;;;21.15;16.17;;;;;;;;;;5039956;28;20025;-82
2022/08/19 12:41:08;;;;;;;26.50;19.60;;;;;;;;;;5043615;28;20032;-79
2022/08/19 12:43:34;;;;;;;24.92;18.83;;;;;;;;;;5060730;28;20423;-79
2022/08/19 12:46:00;;;;;;;25.98;22.25;;;;;;;;;;5062630;28;20102;-81
2022/08/19 12:48:26;;;;;;;31.38;20.45;;;;;;;;;;5080852;28;20039;-80
2022/08/19 12:50:52;;;;;;;28.02;19.33;;;;;;;;;;5078792;28;20032;-82
2022/08/19 12:53:18;;;;;;;24.90;18.08;;;;;;;;;;5058681;28;20044;-82
2022/08/19 12:55:43;;;;;;;23.52;17.75;;;;;;;;;;5061331;28;20025;-81
2022/08/19 12:58:10;;;;;;;26.35;19.40;;;;;;;;;;5059285;28;20445;-80
2022/08/19 13:00:36;;;;;;;23.40;20.90;;;;;;;;;;5050463;28;20435;-79
2022/08/19 13:03:05;;;;;;;19.70;16.38;;;;;;;;;;5058460;28;20427;-81
2022/08/19 13:05:35;;;;;;;19.92;15.88;;;;;;;;;;5060444;28;20025;-83
2022/08/19 13:08:01;;;;;;;25.10;18.88;;;;;;;;;;5062429;28;20036;-80
2022/08/19 13:10:35;;;;;;;25.58;19.00;;;;;;;;;;5083219;28;20016;-80
2022/08/19 13:13:05;;;;;;;25.42;18.88;;;;;;;;;;5036082;28;20033;-80
2022/08/19 13:15:33;;;;;;;26.20;20.00;;;;;;;;;;5040329;28;20105;-82
2022/08/19 13:17:59;;;;;;;28.33;19.73;;;;;;;;;;5040200;28;20029;-81
2022/08/19 13:20:25;;;;;;;23.27;18.88;;;;;;;;;;5055349;28;20088;-81
2022/08/19 13:22:51;;;;;;;22.92;16.77;;;;;;;;;;5055165;28;20041;-81
2022/08/19 13:25:19;;;;;;;27.10;18.55;;;;;;;;;;5055174;28;20029;-80
2022/08/19 13:27:46;;;;;;;22.17;17.75;;;;;;;;;;5037535;28;20394;-81
2022/08/19 13:33:11;;;;;;;30.23;18.95;;;;;;;;;;5037592;28;20033;-82
2022/08/19 13:35:42;;;;;;;24.92;17.88;;;;;;;;;;5038213;28;20389;-82
2022/08/19 13:38:10;;;;;;;23.27;18.85;;;;;;;;;;5021175;28;20440;-80
2022/08/19 13:40:37;;;;;;;33.30;20.27;;;;;;;;;;5036415;28;20033;-81
2022/08/19 13:43:04;;;;;;;28.50;19.65;;;;;;;;;;5052646;28;20121;-80
2022/08/19 13:45:33;;;;;;;22.95;16.42;;;;;;;;;;5035927;28;20144;-81
2022/08/19 13:48:08;;;;;;;23.95;17.52;;;;;;;;;;5038201;28;20108;-81
2022/08/19 13:50:35;;;;;;;27.77;17.17;;;;;;;;;;5020323;28;20358;-81
2022/08/19 13:53:02;;;;;;;17.92;15.90;;;;;;;;;;5038601;28;20025;-81
2022/08/19 13:55:27;;;;;;;20.58;16.92;;;;;;;;;;5037023;28;20021;-79
2022/08/19 13:57:59;;;;;;;25.92;17.27;;;;;;;;;;5038559;28;20450;-81
2022/08/19 14:00:27;;;;;;;23.15;16.13;;;;;;;;;;5039309;28;20858;-80
2022/08/19 14:02:55;;;;;;;22.20;15.93;;;;;;;;;;5038828;28;20040;-80
2022/08/19 14:05:22;;;;;;;26.85;18.23;;;;;;;;;;5038379;28;20021;-80
2022/08/19 14:07:48;;;;;;;23.20;16.85;;;;;;;;;;5037059;28;20045;-81
2022/08/19 14:10:14;;;;;;;23.95;17.10;;;;;;;;;;5036405;28;20033;-81
2022/08/19 14:12:43;;;;;;;29.00;19.02;;;;;;;;;;5054048;28;20025;-82
2022/08/19 14:15:11;;;;;;;20.05;17.00;;;;;;;;;;5037646;28;20026;-81
2022/08/19 14:17:42;;;;;;;26.60;17.15;;;;;;;;;;5037464;28;20026;-81
2022/08/19 14:20:10;;;;;;;23.10;16.58;;;;;;;;;;5053315;28;20117;-82
2022/08/19 14:22:38;;;;;;;23.15;16.35;;;;;;;;;;5052156;28;20033;-81
2022/08/19 14:25:07;;;;;;;21.00;15.73;;;;;;;;;;5053230;28;20032;-81
2022/08/19 14:27:35;;;;;;;21.65;16.30;;;;;;;;;;5036523;28;20025;-81
2022/08/19 14:30:06;;;;;;;22.27;16.70;;;;;;;;;;5036693;28;20028;-81
2022/08/19 14:32:33;;;;;;;21.42;17.00;;;;;;;;;;5052584;28;20115;-81
2022/08/19 14:35:00;;;;;;;21.52;15.35;;;;;;;;;;5051239;28;20025;-81
2022/08/19 14:37:25;;;;;;;23.05;17.17;;;;;;;;;;5036963;28;20361;-81
2022/08/19 14:39:51;;;;;;;29.08;17.42;;;;;;;;;;5034885;28;20033;-80
2022/08/19 14:42:16;;;;;;;21.42;16.13;;;;;;;;;;5033798;28;20093;-83
2022/08/19 14:44:43;;;;;;;20.00;14.77;;;;;;;;;;5034738;28;20022;-80
2022/08/19 14:47:10;;;;;;;17.58;15.10;;;;;;;;;;5034953;28;20025;-80
2022/08/19 14:49:36;;;;;;;22.98;18.00;;;;;;;;;;5035380;28;20041;-83